Airfield :







YOU CAN JOIN US ON...

 
LOGIN :

Register | Disclaimer

   EN    FR    IT 

 









Legend :    VFR   Marginal VFR   IFR   Intensive IFR   Very Intensive IFR
Visi :
Ceiling :
>= 8 km
>= 3000ft
5 to 8 km
1000 to 3000 ft
1500m to 5 km
500 to 1000 ft
800 to 1500m
200 to 500 ft
< 800m
< 200 ft
Symbols :   Thunderstorms  Fog  Heavy snow  Heavy precipitations  Wind > 20 kt






- Airport Elevation : 124 ft
- IATA code : YGV


CYGV - Havre St Pierre

CURRENT METAR :
  • 170714Z AUTO 00000KT 3/4SM BR BKN006 05/05 A3028 RMK VIS VRB 3/8-2 1/2 SLP257

EXPIRED METARs :
  • 170654Z AUTO VRB02KT 3/4SM BR BKN006 05/05 A3028 RMK SLP256
  • 170644Z AUTO VRB02KT 1SM BR BKN006 06/06 A3028 RMK SLP256
  • 170606Z AUTO 00000KT 5/8SM BR BKN006 06/06 A3028 RMK SLP257
  • 170559Z AUTO 34002KT 3SM BR FEW006 06/06 A3028 RMK SLP257
  • 170546Z AUTO 00000KT 2SM BR CLR 07/07 A3028 RMK SLP256
  • 170500Z AUTO 25005KT 220V280 9SM CLR 09/09 A3028 RMK SLP257

TAF AMD TAF CYGV
Valid from the 17 at 06:00 until the 17 at 14:00 UTC


170607Z 1706/1714 VRB03KT 3/4SM BR BKN006
TEMPO 1706/1710 3SM BR SCT006
BECMG 1710/1712 P6SM NSW SKC
FM171200 VRB03KT P6SM SKC RMK FCST BASED ON AUTO OBS. NXT FCST BY 170800Z
CZUL FIR / North America



MET'MAP, your aeronautical weather chart ! - Copyright ORBIFLY December 2007 - Disclaimer

ORBIFLY MET'MAP TEAM :

Programming & Development : Alexandra Zaïnal
Concept & original design : Baudouin d'Aumeries
Assistance for programming : Marc-Olivier Méhu
Technical & hardware support : Manuel Goepfert

Contact : metmap@orbifly.com




SOURCES & CREDITS :

   NOAA